sensor_id;sensor_type;location;lat;lon;timestamp;P1;durP1;ratioP1;P2;durP2;ratioP2
44120;SDS011;29783;52.504;13.478;2024-02-14T00:00:10;13.20;;;8.90;;
44120;SDS011;29783;52.504;13.478;2024-02-14T00:02:45;14.48;;;8.80;;
44120;SDS011;29783;52.504;13.478;2024-02-14T00:05:14;18.27;;;8.15;;
44120;SDS011;29783;52.504;13.478;2024-02-14T00:07:40;10.55;;;7.40;;
44120;SDS011;29783;52.504;13.478;2024-02-14T00:10:06;12.88;;;7.85;;
44120;SDS011;29783;52.504;13.478;2024-02-14T00:12:32;15.63;;;8.48;;
44120;SDS011;29783;52.504;13.478;2024-02-14T00:14:58;16.45;;;7.63;;
44120;SDS011;29783;52.504;13.478;2024-02-14T00:17:24;15.90;;;8.27;;
44120;SDS011;29783;52.504;13.478;2024-02-14T00:19:50;14.25;;;8.15;;
44120;SDS011;29783;52.504;13.478;2024-02-14T00:22:17;12.07;;;7.85;;
44120;SDS011;29783;52.504;13.478;2024-02-14T00:24:43;12.00;;;7.97;;
44120;SDS011;29783;52.504;13.478;2024-02-14T00:27:09;13.65;;;8.93;;
44120;SDS011;29783;52.504;13.478;2024-02-14T00:29:34;12.20;;;8.50;;
44120;SDS011;29783;52.504;13.478;2024-02-14T00:32:00;16.60;;;7.90;;
44120;SDS011;29783;52.504;13.478;2024-02-14T00:34:26;17.40;;;9.43;;
44120;SDS011;29783;52.504;13.478;2024-02-14T00:36:52;24.35;;;9.02;;
44120;SDS011;29783;52.504;13.478;2024-02-14T00:39:18;14.77;;;8.18;;
44120;SDS011;29783;52.504;13.478;2024-02-14T00:41:45;14.38;;;9.13;;
44120;SDS011;29783;52.504;13.478;2024-02-14T00:44:12;9.82;;;7.85;;
44120;SDS011;29783;52.504;13.478;2024-02-14T00:46:38;14.45;;;8.18;;
44120;SDS011;29783;52.504;13.478;2024-02-14T00:49:04;13.30;;;8.45;;
44120;SDS011;29783;52.504;13.478;2024-02-14T00:51:29;13.98;;;7.95;;
44120;SDS011;29783;52.504;13.478;2024-02-14T00:53:55;12.32;;;8.30;;
44120;SDS011;29783;52.504;13.478;2024-02-14T00:56:20;12.93;;;7.88;;
44120;SDS011;29783;52.504;13.478;2024-02-14T00:58:48;16.80;;;8.20;;
44120;SDS011;29783;52.504;13.478;2024-02-14T01:01:14;13.75;;;7.20;;
44120;SDS011;29783;52.504;13.478;2024-02-14T01:03:40;11.18;;;7.72;;
44120;SDS011;29783;52.504;13.478;2024-02-14T01:06:06;18.02;;;7.60;;
44120;SDS011;29783;52.504;13.478;2024-02-14T01:08:31;10.80;;;7.00;;
44120;SDS011;29783;52.504;13.478;2024-02-14T01:10:58;12.82;;;7.68;;
44120;SDS011;29783;52.504;13.478;2024-02-14T01:13:24;12.63;;;7.20;;
44120;SDS011;29783;52.504;13.478;2024-02-14T01:15:49;10.85;;;7.72;;
44120;SDS011;29783;52.504;13.478;2024-02-14T01:18:15;19.92;;;8.63;;
44120;SDS011;29783;52.504;13.478;2024-02-14T01:20:41;11.88;;;7.18;;
44120;SDS011;29783;52.504;13.478;2024-02-14T01:23:06;13.10;;;8.02;;
44120;SDS011;29783;52.504;13.478;2024-02-14T01:25:32;11.05;;;7.38;;
44120;SDS011;29783;52.504;13.478;2024-02-14T01:27:58;10.00;;;7.05;;
44120;SDS011;29783;52.504;13.478;2024-02-14T01:30:24;12.18;;;6.93;;
44120;SDS011;29783;52.504;13.478;2024-02-14T01:32:50;12.55;;;7.47;;
44120;SDS011;29783;52.504;13.478;2024-02-14T01:35:17;13.70;;;6.80;;
44120;SDS011;29783;52.504;13.478;2024-02-14T01:37:43;14.43;;;7.07;;
44120;SDS011;29783;52.504;13.478;2024-02-14T01:40:10;18.27;;;6.82;;
44120;SDS011;29783;52.504;13.478;2024-02-14T01:42:36;12.02;;;6.88;;
44120;SDS011;29783;52.504;13.478;2024-02-14T01:45:02;9.43;;;6.20;;
44120;SDS011;29783;52.504;13.478;2024-02-14T01:47:28;11.73;;;7.00;;
44120;SDS011;29783;52.504;13.478;2024-02-14T01:49:54;10.98;;;6.63;;
44120;SDS011;29783;52.504;13.478;2024-02-14T01:52:19;12.45;;;6.78;;
44120;SDS011;29783;52.504;13.478;2024-02-14T01:54:46;13.63;;;6.55;;
44120;SDS011;29783;52.504;13.478;2024-02-14T01:57:12;10.90;;;5.97;;
44120;SDS011;29783;52.504;13.478;2024-02-14T01:59:38;11.23;;;6.35;;
44120;SDS011;29783;52.504;13.478;2024-02-14T02:02:04;8.77;;;6.18;;
44120;SDS011;29783;52.504;13.478;2024-02-14T02:04:33;12.35;;;6.22;;
44120;SDS011;29783;52.504;13.478;2024-02-14T02:06:59;11.60;;;6.47;;
44120;SDS011;29783;52.504;13.478;2024-02-14T02:09:25;10.43;;;6.07;;
44120;SDS011;29783;52.504;13.478;2024-02-14T02:11:51;9.55;;;5.82;;
44120;SDS011;29783;52.504;13.478;2024-02-14T02:14:19;10.50;;;5.45;;
44120;SDS011;29783;52.504;13.478;2024-02-14T02:16:46;9.30;;;5.90;;
44120;SDS011;29783;52.504;13.478;2024-02-14T02:19:12;11.52;;;6.20;;
44120;SDS011;29783;52.504;13.478;2024-02-14T02:21:40;9.85;;;5.80;;
44120;SDS011;29783;52.504;13.478;2024-02-14T02:24:08;9.43;;;6.03;;
44120;SDS011;29783;52.504;13.478;2024-02-14T02:26:33;13.05;;;5.82;;
44120;SDS011;29783;52.504;13.478;2024-02-14T02:28:59;8.88;;;5.80;;
44120;SDS011;29783;52.504;13.478;2024-02-14T02:31:24;16.52;;;5.25;;
44120;SDS011;29783;52.504;13.478;2024-02-14T02:33:51;7.82;;;5.43;;
44120;SDS011;29783;52.504;13.478;2024-02-14T02:36:17;9.90;;;5.32;;
44120;SDS011;29783;52.504;13.478;2024-02-14T02:38:42;9.93;;;5.70;;
44120;SDS011;29783;52.504;13.478;2024-02-14T02:41:09;12.32;;;5.10;;
44120;SDS011;29783;52.504;13.478;2024-02-14T02:43:34;6.13;;;4.97;;
44120;SDS011;29783;52.504;13.478;2024-02-14T02:46:00;10.75;;;5.43;;
44120;SDS011;29783;52.504;13.478;2024-02-14T02:48:26;11.40;;;5.40;;
44120;SDS011;29783;52.504;13.478;2024-02-14T02:50:52;8.27;;;5.20;;
44120;SDS011;29783;52.504;13.478;2024-02-14T02:53:18;8.82;;;4.88;;
44120;SDS011;29783;52.504;13.478;2024-02-14T02:55:44;9.38;;;5.10;;
44120;SDS011;29783;52.504;13.478;2024-02-14T02:58:10;10.85;;;5.22;;
44120;SDS011;29783;52.504;13.478;2024-02-14T03:00:36;8.52;;;5.05;;
44120;SDS011;29783;52.504;13.478;2024-02-14T03:03:02;9.50;;;4.82;;
44120;SDS011;29783;52.504;13.478;2024-02-14T03:05:29;8.35;;;5.05;;
44120;SDS011;29783;52.504;13.478;2024-02-14T03:07:58;22.60;;;5.30;;
44120;SDS011;29783;52.504;13.478;2024-02-14T03:10:24;6.57;;;4.72;;
44120;SDS011;29783;52.504;13.478;2024-02-14T03:12:50;10.55;;;5.22;;
44120;SDS011;29783;52.504;13.478;2024-02-14T03:15:16;8.70;;;5.38;;
44120;SDS011;29783;52.504;13.478;2024-02-14T03:17:43;8.07;;;4.93;;
44120;SDS011;29783;52.504;13.478;2024-02-14T03:20:10;8.48;;;5.05;;
44120;SDS011;29783;52.504;13.478;2024-02-14T03:22:43;9.30;;;5.20;;
44120;SDS011;29783;52.504;13.478;2024-02-14T03:25:16;7.85;;;5.30;;
44120;SDS011;29783;52.504;13.478;2024-02-14T03:27:42;9.60;;;4.78;;
44120;SDS011;29783;52.504;13.478;2024-02-14T03:30:12;7.57;;;5.45;;
44120;SDS011;29783;52.504;13.478;2024-02-14T03:32:42;8.25;;;5.38;;
44120;SDS011;29783;52.504;13.478;2024-02-14T03:35:08;8.65;;;5.00;;
44120;SDS011;29783;52.504;13.478;2024-02-14T03:37:36;13.80;;;6.03;;
44120;SDS011;29783;52.504;13.478;2024-02-14T03:40:04;12.02;;;7.18;;
44120;SDS011;29783;52.504;13.478;2024-02-14T03:42:31;18.20;;;8.32;;
44120;SDS011;29783;52.504;13.478;2024-02-14T03:44:57;15.13;;;8.65;;
44120;SDS011;29783;52.504;13.478;2024-02-14T03:47:30;10.32;;;6.07;;
44120;SDS011;29783;52.504;13.478;2024-02-14T03:49:57;10.77;;;7.25;;
44120;SDS011;29783;52.504;13.478;2024-02-14T03:52:29;13.43;;;7.93;;
44120;SDS011;29783;52.504;13.478;2024-02-14T03:54:57;16.50;;;7.30;;
44120;SDS011;29783;52.504;13.478;2024-02-14T03:57:24;10.88;;;6.72;;
44120;SDS011;29783;52.504;13.478;2024-02-14T03:59:50;11.93;;;6.13;;
44120;SDS011;29783;52.504;13.478;2024-02-14T04:02:17;14.68;;;6.63;;
44120;SDS011;29783;52.504;13.478;2024-02-14T04:04:44;15.05;;;6.78;;
44120;SDS011;29783;52.504;13.478;2024-02-14T04:07:11;9.95;;;6.53;;
44120;SDS011;29783;52.504;13.478;2024-02-14T04:09:37;10.75;;;6.45;;
44120;SDS011;29783;52.504;13.478;2024-02-14T04:12:03;9.90;;;6.57;;
44120;SDS011;29783;52.504;13.478;2024-02-14T04:14:29;22.20;;;7.05;;
44120;SDS011;29783;52.504;13.478;2024-02-14T04:16:54;9.80;;;6.28;;
44120;SDS011;29783;52.504;13.478;2024-02-14T04:19:20;13.40;;;7.00;;
44120;SDS011;29783;52.504;13.478;2024-02-14T04:21:46;10.45;;;6.38;;
44120;SDS011;29783;52.504;13.478;2024-02-14T04:24:12;15.20;;;7.47;;
44120;SDS011;29783;52.504;13.478;2024-02-14T04:26:38;11.73;;;6.68;;
44120;SDS011;29783;52.504;13.478;2024-02-14T04:29:03;11.00;;;6.90;;
44120;SDS011;29783;52.504;13.478;2024-02-14T04:31:29;15.27;;;7.03;;
44120;SDS011;29783;52.504;13.478;2024-02-14T04:33:56;11.75;;;7.10;;
44120;SDS011;29783;52.504;13.478;2024-02-14T04:36:22;10.85;;;7.15;;
44120;SDS011;29783;52.504;13.478;2024-02-14T04:38:48;8.80;;;6.40;;
44120;SDS011;29783;52.504;13.478;2024-02-14T04:41:14;9.85;;;6.45;;
44120;SDS011;29783;52.504;13.478;2024-02-14T04:43:40;14.32;;;7.25;;
44120;SDS011;29783;52.504;13.478;2024-02-14T04:46:06;9.60;;;6.00;;
44120;SDS011;29783;52.504;13.478;2024-02-14T04:48:36;12.77;;;6.78;;
44120;SDS011;29783;52.504;13.478;2024-02-14T04:51:02;9.65;;;6.57;;
44120;SDS011;29783;52.504;13.478;2024-02-14T04:53:29;11.88;;;6.13;;
44120;SDS011;29783;52.504;13.478;2024-02-14T04:55:54;13.73;;;7.05;;
44120;SDS011;29783;52.504;13.478;2024-02-14T04:58:20;12.65;;;6.50;;
44120;SDS011;29783;52.504;13.478;2024-02-14T05:00:46;12.10;;;6.60;;
44120;SDS011;29783;52.504;13.478;2024-02-14T05:03:11;12.65;;;6.82;;
44120;SDS011;29783;52.504;13.478;2024-02-14T05:05:37;12.88;;;6.93;;
44120;SDS011;29783;52.504;13.478;2024-02-14T05:08:03;15.60;;;6.47;;
44120;SDS011;29783;52.504;13.478;2024-02-14T05:10:29;9.98;;;6.03;;
44120;SDS011;29783;52.504;13.478;2024-02-14T05:12:56;15.63;;;6.75;;
44120;SDS011;29783;52.504;13.478;2024-02-14T05:15:21;18.05;;;6.85;;
44120;SDS011;29783;52.504;13.478;2024-02-14T05:17:47;13.32;;;6.45;;
44120;SDS011;29783;52.504;13.478;2024-02-14T05:20:14;11.07;;;6.32;;
44120;SDS011;29783;52.504;13.478;2024-02-14T05:22:40;10.50;;;6.50;;
44120;SDS011;29783;52.504;13.478;2024-02-14T05:25:05;14.40;;;6.05;;
44120;SDS011;29783;52.504;13.478;2024-02-14T05:27:33;11.75;;;6.50;;
44120;SDS011;29783;52.504;13.478;2024-02-14T05:30:00;15.35;;;6.47;;
44120;SDS011;29783;52.504;13.478;2024-02-14T05:32:26;10.30;;;6.07;;
44120;SDS011;29783;52.504;13.478;2024-02-14T05:34:51;10.65;;;6.57;;
44120;SDS011;29783;52.504;13.478;2024-02-14T05:37:17;11.73;;;6.25;;
44120;SDS011;29783;52.504;13.478;2024-02-14T05:39:43;7.22;;;5.40;;
44120;SDS011;29783;52.504;13.478;2024-02-14T05:42:08;13.63;;;6.60;;
44120;SDS011;29783;52.504;13.478;2024-02-14T05:44:34;9.90;;;6.45;;
44120;SDS011;29783;52.504;13.478;2024-02-14T05:46:59;14.10;;;6.07;;
44120;SDS011;29783;52.504;13.478;2024-02-14T05:49:25;11.23;;;6.65;;
44120;SDS011;29783;52.504;13.478;2024-02-14T05:51:51;15.77;;;6.20;;
44120;SDS011;29783;52.504;13.478;2024-02-14T05:54:18;9.80;;;5.63;;
44120;SDS011;29783;52.504;13.478;2024-02-14T05:56:44;8.45;;;5.50;;
44120;SDS011;29783;52.504;13.478;2024-02-14T05:59:11;10.20;;;5.88;;
44120;SDS011;29783;52.504;13.478;2024-02-14T06:01:36;7.93;;;5.05;;
44120;SDS011;29783;52.504;13.478;2024-02-14T06:04:02;8.57;;;5.90;;
44120;SDS011;29783;52.504;13.478;2024-02-14T06:06:28;11.52;;;6.20;;
44120;SDS011;29783;52.504;13.478;2024-02-14T06:08:53;8.90;;;5.53;;
44120;SDS011;29783;52.504;13.478;2024-02-14T06:11:20;12.65;;;6.07;;
44120;SDS011;29783;52.504;13.478;2024-02-14T06:13:47;9.85;;;5.82;;
44120;SDS011;29783;52.504;13.478;2024-02-14T06:16:13;14.95;;;5.97;;
44120;SDS011;29783;52.504;13.478;2024-02-14T06:18:38;11.85;;;6.25;;
44120;SDS011;29783;52.504;13.478;2024-02-14T06:21:05;17.40;;;6.10;;
44120;SDS011;29783;52.504;13.478;2024-02-14T06:23:31;18.50;;;5.82;;
44120;SDS011;29783;52.504;13.478;2024-02-14T06:25:57;12.05;;;6.25;;
44120;SDS011;29783;52.504;13.478;2024-02-14T06:28:23;10.57;;;5.93;;
44120;SDS011;29783;52.504;13.478;2024-02-14T06:30:49;11.45;;;5.53;;
44120;SDS011;29783;52.504;13.478;2024-02-14T06:33:15;11.73;;;5.55;;
44120;SDS011;29783;52.504;13.478;2024-02-14T06:35:40;10.15;;;5.70;;
44120;SDS011;29783;52.504;13.478;2024-02-14T06:38:06;11.73;;;6.00;;
44120;SDS011;29783;52.504;13.478;2024-02-14T06:40:32;13.65;;;5.95;;
44120;SDS011;29783;52.504;13.478;2024-02-14T06:42:58;14.48;;;5.45;;
44120;SDS011;29783;52.504;13.478;2024-02-14T06:45:25;16.23;;;5.70;;
44120;SDS011;29783;52.504;13.478;2024-02-14T06:47:52;12.43;;;5.68;;
44120;SDS011;29783;52.504;13.478;2024-02-14T06:50:19;11.68;;;5.60;;
44120;SDS011;29783;52.504;13.478;2024-02-14T06:52:44;14.40;;;6.88;;
44120;SDS011;29783;52.504;13.478;2024-02-14T06:55:10;11.38;;;5.13;;
44120;SDS011;29783;52.504;13.478;2024-02-14T06:57:36;15.55;;;6.00;;
44120;SDS011;29783;52.504;13.478;2024-02-14T07:00:02;11.52;;;6.53;;
44120;SDS011;29783;52.504;13.478;2024-02-14T07:02:30;13.63;;;6.25;;
44120;SDS011;29783;52.504;13.478;2024-02-14T07:04:56;15.48;;;6.50;;
44120;SDS011;29783;52.504;13.478;2024-02-14T07:07:22;10.00;;;5.75;;
44120;SDS011;29783;52.504;13.478;2024-02-14T07:09:48;14.95;;;5.95;;
44120;SDS011;29783;52.504;13.478;2024-02-14T07:12:13;16.83;;;5.40;;
44120;SDS011;29783;52.504;13.478;2024-02-14T07:14:39;12.65;;;6.20;;
44120;SDS011;29783;52.504;13.478;2024-02-14T07:17:05;15.70;;;5.47;;
44120;SDS011;29783;52.504;13.478;2024-02-14T07:19:31;14.18;;;5.32;;
44120;SDS011;29783;52.504;13.478;2024-02-14T07:21:57;14.00;;;6.05;;
44120;SDS011;29783;52.504;13.478;2024-02-14T07:24:22;15.18;;;5.07;;
44120;SDS011;29783;52.504;13.478;2024-02-14T07:26:48;11.82;;;5.30;;
44120;SDS011;29783;52.504;13.478;2024-02-14T07:29:14;13.23;;;6.10;;
44120;SDS011;29783;52.504;13.478;2024-02-14T07:31:39;21.20;;;5.72;;
44120;SDS011;29783;52.504;13.478;2024-02-14T07:34:05;16.25;;;5.90;;
44120;SDS011;29783;52.504;13.478;2024-02-14T07:36:31;9.25;;;5.22;;
44120;SDS011;29783;52.504;13.478;2024-02-14T07:38:57;9.73;;;5.28;;
44120;SDS011;29783;52.504;13.478;2024-02-14T07:41:22;7.70;;;4.88;;
44120;SDS011;29783;52.504;13.478;2024-02-14T07:43:48;8.23;;;4.22;;
44120;SDS011;29783;52.504;13.478;2024-02-14T07:46:20;7.95;;;3.97;;
44120;SDS011;29783;52.504;13.478;2024-02-14T07:48:47;11.23;;;3.85;;
44120;SDS011;29783;52.504;13.478;2024-02-14T07:51:13;10.57;;;3.90;;
44120;SDS011;29783;52.504;13.478;2024-02-14T07:53:39;12.45;;;4.20;;
44120;SDS011;29783;52.504;13.478;2024-02-14T07:56:05;9.32;;;4.72;;
44120;SDS011;29783;52.504;13.478;2024-02-14T07:58:31;6.90;;;3.80;;
44120;SDS011;29783;52.504;13.478;2024-02-14T08:00:56;6.75;;;3.63;;
44120;SDS011;29783;52.504;13.478;2024-02-14T08:03:22;10.43;;;4.20;;
44120;SDS011;29783;52.504;13.478;2024-02-14T08:05:47;6.32;;;4.05;;
44120;SDS011;29783;52.504;13.478;2024-02-14T08:08:13;8.95;;;4.22;;
44120;SDS011;29783;52.504;13.478;2024-02-14T08:10:39;10.85;;;3.90;;
44120;SDS011;29783;52.504;13.478;2024-02-14T08:13:04;11.38;;;4.90;;
44120;SDS011;29783;52.504;13.478;2024-02-14T08:15:30;6.03;;;3.70;;
44120;SDS011;29783;52.504;13.478;2024-02-14T08:17:56;7.30;;;3.72;;
44120;SDS011;29783;52.504;13.478;2024-02-14T08:20:22;10.30;;;4.55;;
44120;SDS011;29783;52.504;13.478;2024-02-14T08:22:48;13.07;;;4.50;;
44120;SDS011;29783;52.504;13.478;2024-02-14T08:25:14;8.18;;;3.72;;
44120;SDS011;29783;52.504;13.478;2024-02-14T08:27:40;9.25;;;3.85;;
44120;SDS011;29783;52.504;13.478;2024-02-14T08:30:06;9.43;;;3.92;;
44120;SDS011;29783;52.504;13.478;2024-02-14T08:32:33;7.85;;;4.15;;
44120;SDS011;29783;52.504;13.478;2024-02-14T08:34:59;9.43;;;4.25;;
44120;SDS011;29783;52.504;13.478;2024-02-14T08:37:26;5.13;;;3.80;;
44120;SDS011;29783;52.504;13.478;2024-02-14T08:39:52;8.13;;;3.60;;
44120;SDS011;29783;52.504;13.478;2024-02-14T08:42:18;12.77;;;4.38;;
44120;SDS011;29783;52.504;13.478;2024-02-14T08:44:43;9.75;;;4.50;;
44120;SDS011;29783;52.504;13.478;2024-02-14T08:47:09;5.85;;;3.88;;
44120;SDS011;29783;52.504;13.478;2024-02-14T08:49:35;7.47;;;4.00;;
44120;SDS011;29783;52.504;13.478;2024-02-14T08:52:01;8.77;;;3.47;;
44120;SDS011;29783;52.504;13.478;2024-02-14T08:54:26;9.23;;;3.70;;
44120;SDS011;29783;52.504;13.478;2024-02-14T08:56:53;8.73;;;3.60;;
44120;SDS011;29783;52.504;13.478;2024-02-14T08:59:20;7.00;;;3.53;;
44120;SDS011;29783;52.504;13.478;2024-02-14T09:01:46;8.32;;;3.53;;
44120;SDS011;29783;52.504;13.478;2024-02-14T09:04:13;9.38;;;3.72;;
44120;SDS011;29783;52.504;13.478;2024-02-14T09:06:38;9.10;;;3.97;;
44120;SDS011;29783;52.504;13.478;2024-02-14T09:09:05;8.85;;;3.88;;
44120;SDS011;29783;52.504;13.478;2024-02-14T09:11:32;7.65;;;3.85;;
44120;SDS011;29783;52.504;13.478;2024-02-14T09:13:57;6.50;;;3.60;;
44120;SDS011;29783;52.504;13.478;2024-02-14T09:16:29;5.57;;;3.58;;
44120;SDS011;29783;52.504;13.478;2024-02-14T09:18:56;6.25;;;3.28;;
44120;SDS011;29783;52.504;13.478;2024-02-14T09:21:21;8.77;;;3.80;;
44120;SDS011;29783;52.504;13.478;2024-02-14T09:23:47;8.13;;;3.63;;
44120;SDS011;29783;52.504;13.478;2024-02-14T09:26:13;9.60;;;4.30;;
44120;SDS011;29783;52.504;13.478;2024-02-14T09:28:42;5.68;;;3.45;;
44120;SDS011;29783;52.504;13.478;2024-02-14T09:31:08;9.48;;;3.95;;
44120;SDS011;29783;52.504;13.478;2024-02-14T09:33:36;6.60;;;3.28;;
44120;SDS011;29783;52.504;13.478;2024-02-14T09:36:02;10.70;;;3.65;;
44120;SDS011;29783;52.504;13.478;2024-02-14T09:38:29;10.15;;;3.20;;
44120;SDS011;29783;52.504;13.478;2024-02-14T09:40:57;9.00;;;4.32;;
44120;SDS011;29783;52.504;13.478;2024-02-14T09:43:36;7.20;;;3.63;;
44120;SDS011;29783;52.504;13.478;2024-02-14T09:46:06;7.20;;;3.22;;
44120;SDS011;29783;52.504;13.478;2024-02-14T09:48:33;7.35;;;3.20;;
44120;SDS011;29783;52.504;13.478;2024-02-14T09:51:00;8.73;;;3.15;;
44120;SDS011;29783;52.504;13.478;2024-02-14T09:53:25;6.53;;;2.60;;
44120;SDS011;29783;52.504;13.478;2024-02-14T09:55:53;9.40;;;3.42;;
44120;SDS011;29783;52.504;13.478;2024-02-14T09:58:20;6.05;;;2.40;;
44120;SDS011;29783;52.504;13.478;2024-02-14T10:00:46;5.82;;;2.30;;
44120;SDS011;29783;52.504;13.478;2024-02-14T10:10:05;5.72;;;2.13;;
44120;SDS011;29783;52.504;13.478;2024-02-14T10:12:31;8.65;;;2.20;;
44120;SDS011;29783;52.504;13.478;2024-02-14T10:14:56;5.95;;;2.50;;
44120;SDS011;29783;52.504;13.478;2024-02-14T10:17:22;11.50;;;2.28;;
44120;SDS011;29783;52.504;13.478;2024-02-14T10:22:23;5.63;;;2.13;;
44120;SDS011;29783;52.504;13.478;2024-02-14T10:24:50;4.65;;;1.85;;
44120;SDS011;29783;52.504;13.478;2024-02-14T10:27:15;3.25;;;2.08;;
44120;SDS011;29783;52.504;13.478;2024-02-14T10:29:41;4.40;;;1.95;;
44120;SDS011;29783;52.504;13.478;2024-02-14T10:32:08;4.45;;;2.20;;
44120;SDS011;29783;52.504;13.478;2024-02-14T10:34:34;5.65;;;2.28;;
44120;SDS011;29783;52.504;13.478;2024-02-14T10:37:02;4.97;;;1.85;;
44120;SDS011;29783;52.504;13.478;2024-02-14T10:39:30;4.38;;;2.03;;
44120;SDS011;29783;52.504;13.478;2024-02-14T10:41:57;4.88;;;2.20;;
44120;SDS011;29783;52.504;13.478;2024-02-14T10:44:22;6.63;;;2.42;;
44120;SDS011;29783;52.504;13.478;2024-02-14T10:46:48;5.72;;;1.90;;
44120;SDS011;29783;52.504;13.478;2024-02-14T10:49:17;3.15;;;1.95;;
44120;SDS011;29783;52.504;13.478;2024-02-14T10:51:45;5.85;;;2.20;;
44120;SDS011;29783;52.504;13.478;2024-02-14T10:54:14;6.38;;;2.10;;
44120;SDS011;29783;52.504;13.478;2024-02-14T10:56:42;9.98;;;2.50;;
44120;SDS011;29783;52.504;13.478;2024-02-14T10:59:11;5.78;;;2.25;;
44120;SDS011;29783;52.504;13.478;2024-02-14T11:01:41;6.75;;;2.33;;
44120;SDS011;29783;52.504;13.478;2024-02-14T11:04:07;4.43;;;2.50;;
44120;SDS011;29783;52.504;13.478;2024-02-14T11:06:49;5.22;;;2.10;;
44120;SDS011;29783;52.504;13.478;2024-02-14T11:09:22;5.32;;;1.90;;
44120;SDS011;29783;52.504;13.478;2024-02-14T11:12:08;6.63;;;2.50;;
44120;SDS011;29783;52.504;13.478;2024-02-14T11:14:35;5.70;;;2.10;;
44120;SDS011;29783;52.504;13.478;2024-02-14T11:17:03;9.00;;;2.08;;
44120;SDS011;29783;52.504;13.478;2024-02-14T11:19:34;3.72;;;1.90;;
44120;SDS011;29783;52.504;13.478;2024-02-14T11:22:17;9.00;;;2.40;;
44120;SDS011;29783;52.504;13.478;2024-02-14T11:24:47;6.60;;;2.25;;
44120;SDS011;29783;52.504;13.478;2024-02-14T11:27:14;3.60;;;2.00;;
44120;SDS011;29783;52.504;13.478;2024-02-14T11:29:51;17.55;;;2.20;;
44120;SDS011;29783;52.504;13.478;2024-02-14T11:32:17;3.92;;;2.25;;
44120;SDS011;29783;52.504;13.478;2024-02-14T11:34:51;6.22;;;2.03;;
44120;SDS011;29783;52.504;13.478;2024-02-14T11:37:19;4.22;;;1.98;;
44120;SDS011;29783;52.504;13.478;2024-02-14T11:39:46;7.05;;;2.13;;
44120;SDS011;29783;52.504;13.478;2024-02-14T11:42:11;5.10;;;2.30;;
44120;SDS011;29783;52.504;13.478;2024-02-14T11:44:39;12.18;;;2.67;;
44120;SDS011;29783;52.504;13.478;2024-02-14T11:47:07;9.82;;;2.15;;
44120;SDS011;29783;52.504;13.478;2024-02-14T11:49:35;4.82;;;1.80;;
44120;SDS011;29783;52.504;13.478;2024-02-14T11:52:01;7.65;;;2.80;;
44120;SDS011;29783;52.504;13.478;2024-02-14T11:54:29;8.55;;;2.40;;
44120;SDS011;29783;52.504;13.478;2024-02-14T11:56:55;5.97;;;2.60;;
44120;SDS011;29783;52.504;13.478;2024-02-14T11:59:20;5.10;;;2.45;;
44120;SDS011;29783;52.504;13.478;2024-02-14T12:01:48;6.45;;;2.72;;
44120;SDS011;29783;52.504;13.478;2024-02-14T12:04:16;6.07;;;3.10;;
44120;SDS011;29783;52.504;13.478;2024-02-14T12:06:42;5.10;;;2.63;;
44120;SDS011;29783;52.504;13.478;2024-02-14T12:09:08;8.65;;;2.60;;
44120;SDS011;29783;52.504;13.478;2024-02-14T12:11:38;7.82;;;2.67;;
44120;SDS011;29783;52.504;13.478;2024-02-14T12:14:09;4.00;;;2.40;;
44120;SDS011;29783;52.504;13.478;2024-02-14T12:16:35;5.85;;;2.42;;
44120;SDS011;29783;52.504;13.478;2024-02-14T12:19:09;8.05;;;3.15;;
44120;SDS011;29783;52.504;13.478;2024-02-14T12:21:40;5.32;;;3.05;;
44120;SDS011;29783;52.504;13.478;2024-02-14T12:24:10;15.63;;;3.55;;
44120;SDS011;29783;52.504;13.478;2024-02-14T12:26:39;7.78;;;2.78;;
44120;SDS011;29783;52.504;13.478;2024-02-14T12:29:06;14.00;;;3.50;;
44120;SDS011;29783;52.504;13.478;2024-02-14T12:31:33;6.57;;;3.40;;
44120;SDS011;29783;52.504;13.478;2024-02-14T12:34:00;5.80;;;2.75;;
44120;SDS011;29783;52.504;13.478;2024-02-14T12:36:36;14.57;;;3.25;;
44120;SDS011;29783;52.504;13.478;2024-02-14T12:39:03;7.68;;;3.20;;
44120;SDS011;29783;52.504;13.478;2024-02-14T12:41:29;8.27;;;2.95;;
44120;SDS011;29783;52.504;13.478;2024-02-14T12:43:56;10.30;;;3.20;;
44120;SDS011;29783;52.504;13.478;2024-02-14T12:46:22;11.40;;;3.50;;
44120;SDS011;29783;52.504;13.478;2024-02-14T12:48:48;6.82;;;3.42;;
44120;SDS011;29783;52.504;13.478;2024-02-14T12:51:13;8.32;;;3.40;;
44120;SDS011;29783;52.504;13.478;2024-02-14T12:53:39;8.80;;;3.60;;
44120;SDS011;29783;52.504;13.478;2024-02-14T12:56:05;6.70;;;3.38;;
44120;SDS011;29783;52.504;13.478;2024-02-14T12:58:32;8.20;;;2.97;;
44120;SDS011;29783;52.504;13.478;2024-02-14T13:00:58;10.27;;;3.40;;
44120;SDS011;29783;52.504;13.478;2024-02-14T13:03:24;7.63;;;3.03;;
44120;SDS011;29783;52.504;13.478;2024-02-14T13:05:50;11.15;;;3.80;;
44120;SDS011;29783;52.504;13.478;2024-02-14T13:08:18;4.00;;;2.85;;
44120;SDS011;29783;52.504;13.478;2024-02-14T13:10:44;9.68;;;2.70;;
44120;SDS011;29783;52.504;13.478;2024-02-14T13:13:10;7.20;;;2.70;;
44120;SDS011;29783;52.504;13.478;2024-02-14T13:15:35;4.22;;;2.60;;
44120;SDS011;29783;52.504;13.478;2024-02-14T13:18:01;5.55;;;2.15;;
44120;SDS011;29783;52.504;13.478;2024-02-14T13:20:28;7.72;;;2.42;;
44120;SDS011;29783;52.504;13.478;2024-02-14T13:22:54;7.22;;;2.70;;
44120;SDS011;29783;52.504;13.478;2024-02-14T13:25:20;5.90;;;2.83;;
44120;SDS011;29783;52.504;13.478;2024-02-14T13:27:46;8.10;;;2.75;;
44120;SDS011;29783;52.504;13.478;2024-02-14T13:30:12;10.73;;;2.60;;
44120;SDS011;29783;52.504;13.478;2024-02-14T13:32:38;5.70;;;2.67;;
44120;SDS011;29783;52.504;13.478;2024-02-14T13:35:04;5.63;;;3.20;;
44120;SDS011;29783;52.504;13.478;2024-02-14T13:37:33;10.00;;;2.90;;
44120;SDS011;29783;52.504;13.478;2024-02-14T13:39:59;10.40;;;3.30;;
44120;SDS011;29783;52.504;13.478;2024-02-14T13:42:26;7.68;;;3.00;;
44120;SDS011;29783;52.504;13.478;2024-02-14T13:44:51;8.52;;;3.05;;
44120;SDS011;29783;52.504;13.478;2024-02-14T13:47:19;7.45;;;3.30;;
44120;SDS011;29783;52.504;13.478;2024-02-14T13:49:45;10.10;;;3.35;;
44120;SDS011;29783;52.504;13.478;2024-02-14T13:52:11;7.68;;;3.40;;
44120;SDS011;29783;52.504;13.478;2024-02-14T13:54:37;9.35;;;3.22;;
44120;SDS011;29783;52.504;13.478;2024-02-14T13:57:03;7.65;;;2.80;;
44120;SDS011;29783;52.504;13.478;2024-02-14T13:59:28;10.98;;;3.55;;
44120;SDS011;29783;52.504;13.478;2024-02-14T14:01:54;7.18;;;3.42;;
44120;SDS011;29783;52.504;13.478;2024-02-14T14:04:20;7.82;;;3.13;;
44120;SDS011;29783;52.504;13.478;2024-02-14T14:06:46;8.88;;;3.38;;
44120;SDS011;29783;52.504;13.478;2024-02-14T14:09:12;9.32;;;3.58;;
44120;SDS011;29783;52.504;13.478;2024-02-14T14:11:38;10.27;;;3.30;;
44120;SDS011;29783;52.504;13.478;2024-02-14T14:14:04;7.30;;;3.17;;
44120;SDS011;29783;52.504;13.478;2024-02-14T14:16:30;8.05;;;2.88;;
44120;SDS011;29783;52.504;13.478;2024-02-14T14:18:57;10.88;;;2.85;;
44120;SDS011;29783;52.504;13.478;2024-02-14T14:21:23;10.23;;;3.88;;
44120;SDS011;29783;52.504;13.478;2024-02-14T14:23:49;7.88;;;2.80;;
44120;SDS011;29783;52.504;13.478;2024-02-14T14:26:15;11.10;;;3.60;;
44120;SDS011;29783;52.504;13.478;2024-02-14T14:28:40;5.45;;;2.80;;
44120;SDS011;29783;52.504;13.478;2024-02-14T14:31:07;4.22;;;3.00;;
44120;SDS011;29783;52.504;13.478;2024-02-14T14:33:36;5.75;;;3.00;;